Time;durP1;ratioP1;P1;durP2;ratioP2;P2;SDS_P1;SDS_P2;PMS_P1;PMS_P2;Temp;Humidity;BMP_temperature;BMP_pressure;BME280_temperature;BME280_humidity;BME280_pressure;Samples;Min_cycle;Max_cycle;Signal;HPM_P1;HPM_P2
2024/03/08 00:00:32;;;;;;;39.85;21.92;;;;;;;-146.25;100.00;52573.00;2087281;28;33151;-63
2024/03/08 00:01:34;;;;;;;45.15;23.20;;;;;;;-146.25;100.00;52587.19;2087892;28;35245;-63
2024/03/08 00:02:37;;;;;;;41.47;22.38;;;;;;;-146.25;100.00;52585.16;2088405;28;20851;-64
2024/03/08 00:03:40;;;;;;;41.90;22.00;;;;;;;-146.25;100.00;52562.84;2088122;28;23532;-63
2024/03/08 00:04:42;;;;;;;41.03;23.05;;;;;;;-146.25;100.00;52587.19;2092635;28;20044;-64
2024/03/08 00:05:44;;;;;;;40.45;22.30;;;;;;;-146.25;100.00;52585.16;2096019;28;22176;-63
2024/03/08 00:06:46;;;;;;;38.92;22.17;;;;;;;-146.25;100.00;52595.28;2096644;28;20932;-64
2024/03/08 00:07:47;;;;;;;40.80;22.38;;;;;;;-146.25;100.00;52627.75;2095766;28;23187;-64
2024/03/08 00:08:50;;;;;;;38.70;22.33;;;;;;;-146.25;100.00;52637.88;2096261;28;20164;-63
2024/03/08 00:09:52;;;;;;;36.75;21.73;;;;;;;-146.25;100.00;52589.22;2096502;28;24008;-63
2024/03/08 00:10:54;;;;;;;41.88;22.88;;;;;;;-146.25;100.00;52587.19;2097134;28;20041;-62
2024/03/08 00:11:56;;;;;;;39.30;21.50;;;;;;;-146.25;100.00;52591.25;2096396;28;25014;-63
2024/03/08 00:12:58;;;;;;;38.17;21.30;;;;;;;-146.25;100.00;52605.44;2097140;28;22289;-63
2024/03/08 00:14:00;;;;;;;39.05;22.52;;;;;;;-146.25;100.00;52566.91;2096097;28;20171;-62
2024/03/08 00:15:02;;;;;;;41.10;21.98;;;;;;;-146.25;100.00;52579.06;2087485;28;34163;-62
2024/03/08 00:16:09;;;;;;;44.00;21.20;;;;;;;-146.25;100.00;52601.38;2088095;28;20050;-63
2024/03/08 00:17:10;;;;;;;40.58;21.55;;;;;;;-146.25;100.00;52611.50;2095991;28;37710;-63
2024/03/08 00:18:13;;;;;;;37.38;21.63;;;;;;;-146.25;100.00;52587.19;2096278;28;35903;-62
2024/03/08 00:19:14;;;;;;;37.33;21.13;;;;;;;-146.25;100.00;52593.25;2096208;28;34134;-63
2024/03/08 00:20:17;;;;;;;40.47;22.55;;;;;;;-146.25;100.00;52585.16;2095732;28;36118;-63
2024/03/08 00:21:21;;;;;;;43.75;22.73;;;;;;;-146.25;100.00;52587.19;2087850;28;20099;-63
2024/03/08 00:22:23;;;;;;;42.60;22.60;;;;;;;-146.25;100.00;52595.28;2087638;28;33939;-63
2024/03/08 00:23:28;;;;;;;42.65;22.00;;;;;;;-146.25;100.00;52603.41;2096851;28;20048;-62
2024/03/08 00:24:30;;;;;;;41.30;21.25;;;;;;;-146.25;100.00;52605.44;2095727;28;35225;-62
2024/03/08 00:25:32;;;;;;;42.85;21.00;;;;;;;-146.25;100.00;52585.16;2096383;28;33389;-62
2024/03/08 00:26:35;;;;;;;39.67;21.25;;;;;;;-146.25;100.00;52617.59;2096000;28;32292;-62
2024/03/08 00:27:43;;;;;;;40.03;21.77;;;;;;;-146.25;100.00;52593.25;2096880;28;37354;-63
2024/03/08 00:28:45;;;;;;;43.67;21.77;;;;;;;-146.25;100.00;52573.00;2096223;28;33626;-63
2024/03/08 00:29:47;;;;;;;38.88;21.65;;;;;;;-146.25;100.00;52585.16;2096210;28;37255;-63
2024/03/08 00:30:49;;;;;;;39.72;22.17;;;;;;;-146.25;100.00;52593.25;2096167;28;32894;-63
2024/03/08 00:31:51;;;;;;;43.97;21.88;;;;;;;-146.25;100.00;52587.19;2096233;28;34635;-63
2024/03/08 00:32:53;;;;;;;37.85;21.27;;;;;;;-146.25;100.00;52619.63;2096133;28;33796;-62
2024/03/08 00:33:54;;;;;;;36.97;20.60;;;;;;;-146.25;100.00;52593.25;2096378;28;33823;-62
2024/03/08 00:34:57;;;;;;;40.72;21.42;;;;;;;-146.25;100.00;52611.50;2087149;28;38022;-63
2024/03/08 00:35:58;;;;;;;39.88;20.27;;;;;;;-146.25;100.00;52570.97;2087691;28;20124;-63
2024/03/08 00:37:03;;;;;;;38.50;21.75;;;;;;;-146.25;100.00;52605.44;2095969;28;32446;-63
2024/03/08 00:38:05;;;;;;;37.85;21.38;;;;;;;-146.25;100.00;52573.00;2095881;28;34863;-62
2024/03/08 00:39:07;;;;;;;37.15;20.35;;;;;;;-146.25;100.00;52595.28;2095916;28;33546;-62
2024/03/08 00:40:09;;;;;;;39.92;21.73;;;;;;;-146.25;100.00;52595.28;2096275;28;34632;-63
2024/03/08 00:41:14;;;;;;;40.55;21.10;;;;;;;-146.25;100.00;52599.34;2096330;28;20204;-63
2024/03/08 00:42:20;;;;;;;37.70;21.40;;;;;;;-146.25;100.00;52579.06;2096080;28;36580;-62
2024/03/08 00:43:21;;;;;;;33.78;20.92;;;;;;;-146.25;100.00;52603.41;2087077;28;34737;-63
2024/03/08 00:44:24;;;;;;;39.95;20.92;;;;;;;-146.25;100.00;52611.50;2089809;28;35431;-63
2024/03/08 00:45:26;;;;;;;40.20;20.75;;;;;;;-146.25;100.00;52607.47;2097119;28;38399;-63
2024/03/08 00:46:28;;;;;;;38.60;20.70;;;;;;;-146.25;100.00;52611.50;2097911;28;33902;-63
2024/03/08 00:47:30;;;;;;;38.80;20.73;;;;;;;-146.25;100.00;52601.38;2097615;28;30901;-63
2024/03/08 00:48:32;;;;;;;36.53;20.60;;;;;;;-146.25;100.00;52595.28;2097847;28;31912;-63
2024/03/08 00:49:39;;;;;;;36.80;20.85;;;;;;;-146.25;100.00;52595.28;2097490;28;33368;-62
2024/03/08 00:50:40;;;;;;;39.65;20.63;;;;;;;-146.25;100.00;52587.19;2097870;28;27168;-63
2024/03/08 00:51:43;;;;;;;37.63;20.10;;;;;;;-146.25;100.00;52593.25;2097355;28;34079;-63
2024/03/08 00:52:46;;;;;;;37.13;20.38;;;;;;;-146.25;100.00;52583.13;2097406;28;30838;-63
2024/03/08 00:53:50;;;;;;;35.00;18.55;;;;;;;-146.25;100.00;52629.75;2098269;28;20037;-63
2024/03/08 00:54:52;;;;;;;35.65;19.02;;;;;;;-146.25;100.00;52591.25;2097835;28;37123;-62
2024/03/08 00:55:54;;;;;;;35.30;20.58;;;;;;;-146.25;100.00;52605.44;2097449;28;33117;-62
2024/03/08 00:56:56;;;;;;;37.22;21.13;;;;;;;-146.25;100.00;52566.91;2097653;28;35577;-63
2024/03/08 00:57:58;;;;;;;34.70;20.60;;;;;;;-146.25;100.00;52603.41;2097845;28;33322;-63
2024/03/08 00:59:03;;;;;;;35.67;19.55;;;;;;;-146.25;100.00;52601.38;2097413;28;33741;-62
2024/03/08 01:00:09;;;;;;;32.13;17.08;;;;;;;-146.25;100.00;52611.50;2097132;28;34015;-63
2024/03/08 01:01:15;;;;;;;36.67;20.05;;;;;;;-146.25;100.00;52585.16;2097784;28;32079;-63
2024/03/08 01:02:21;;;;;;;36.78;19.85;;;;;;;-146.25;100.00;52623.69;2080185;28;34664;-63
2024/03/08 01:03:25;;;;;;;36.08;20.13;;;;;;;-146.25;100.00;52619.63;2082701;28;32931;-62
2024/03/08 01:04:29;;;;;;;33.33;18.83;;;;;;;-146.25;100.00;52593.25;2096801;28;34130;-63
2024/03/08 01:05:31;;;;;;;35.35;19.27;;;;;;;-146.25;100.00;52570.97;2097094;28;37237;-63
2024/03/08 01:06:33;;;;;;;34.75;19.70;;;;;;;-146.25;100.00;52591.25;2097175;28;30961;-63
2024/03/08 01:07:35;;;;;;;33.05;18.85;;;;;;;-146.25;100.00;52566.91;2098056;28;20045;-63
2024/03/08 01:08:42;;;;;;;34.08;18.75;;;;;;;-146.25;100.00;52558.78;2096788;28;34443;-62
2024/03/08 01:09:43;;;;;;;35.60;19.52;;;;;;;-146.25;100.00;52648.00;2098385;28;20033;-63
2024/03/08 01:10:45;;;;;;;33.25;18.90;;;;;;;-146.25;100.00;52633.81;2097297;28;36922;-63
2024/03/08 01:11:50;;;;;;;40.47;21.02;;;;;;;-146.25;100.00;52577.03;2097784;28;32469;-63
2024/03/08 01:12:54;;;;;;;34.05;19.00;;;;;;;-146.25;100.00;52603.41;2096989;28;35706;-62
2024/03/08 01:13:56;;;;;;;34.97;18.48;;;;;;;-146.25;100.00;52583.13;2097713;28;31740;-63
2024/03/08 01:14:58;;;;;;;33.33;18.65;;;;;;;-146.25;100.00;52566.91;2097928;28;20037;-62
2024/03/08 01:16:00;;;;;;;37.35;19.88;;;;;;;-146.25;100.00;52573.00;2097967;28;20957;-63
2024/03/08 01:17:01;;;;;;;32.08;18.33;;;;;;;-146.25;100.00;52566.91;2096845;28;35413;-63
2024/03/08 01:18:05;;;;;;;35.30;20.38;;;;;;;-146.25;100.00;52579.06;2097716;28;34180;-63
2024/03/08 01:19:07;;;;;;;34.58;18.58;;;;;;;-146.25;100.00;52597.31;2096675;28;32817;-63
2024/03/08 01:20:12;;;;;;;30.67;18.70;;;;;;;-146.25;100.00;52587.19;2088794;28;35967;-63
2024/03/08 01:21:14;;;;;;;33.67;19.25;;;;;;;-146.25;100.00;52621.66;2089293;28;20050;-63
2024/03/08 01:22:15;;;;;;;33.17;18.85;;;;;;;-146.25;100.00;52575.00;2097412;28;33245;-63
2024/03/08 01:23:17;;;;;;;35.83;19.52;;;;;;;-146.25;100.00;52562.84;2097456;28;30005;-63
2024/03/08 01:24:19;;;;;;;37.30;20.02;;;;;;;-146.25;100.00;52615.56;2089029;28;20320;-63
2024/03/08 01:25:21;;;;;;;36.78;19.98;;;;;;;-146.25;100.00;52587.19;2088266;28;35016;-63
2024/03/08 01:26:23;;;;;;;33.88;19.13;;;;;;;-146.25;100.00;52609.50;2097691;28;34467;-63
2024/03/08 01:27:24;;;;;;;34.42;19.83;;;;;;;-146.25;100.00;52607.47;2097091;28;32757;-63
2024/03/08 01:28:26;;;;;;;34.55;18.20;;;;;;;-146.25;100.00;52609.50;2097323;28;31881;-63
2024/03/08 01:29:29;;;;;;;33.92;19.25;;;;;;;-146.25;100.00;52591.25;2097154;28;32669;-63
2024/03/08 01:30:32;;;;;;;33.83;18.27;;;;;;;-146.25;100.00;52607.47;2097396;28;29430;-63
2024/03/08 01:31:36;;;;;;;30.77;18.45;;;;;;;-146.25;100.00;52568.94;2097075;28;32434;-62
2024/03/08 01:32:38;;;;;;;29.75;17.67;;;;;;;-146.25;100.00;52607.47;2088768;28;20045;-63
2024/03/08 01:33:40;;;;;;;40.42;19.05;;;;;;;-146.25;100.00;52607.47;2088338;28;32557;-63
2024/03/08 01:34:42;;;;;;;31.55;18.13;;;;;;;-146.25;100.00;52579.06;2097263;28;38684;-63
2024/03/08 01:35:43;;;;;;;32.85;19.00;;;;;;;-146.25;100.00;52619.63;2097390;28;20072;-62
2024/03/08 01:36:45;;;;;;;31.08;18.50;;;;;;;-146.25;100.00;52579.06;2088257;28;35347;-62
2024/03/08 01:37:49;;;;;;;34.08;19.17;;;;;;;-146.25;100.00;52558.78;2088293;28;33766;-62
2024/03/08 01:38:53;;;;;;;31.17;18.17;;;;;;;-146.25;100.00;52599.34;2097283;28;33594;-63
2024/03/08 01:39:55;;;;;;;33.00;18.02;;;;;;;-146.25;100.00;52573.00;2096621;28;38169;-62
2024/03/08 01:40:57;;;;;;;33.13;18.58;;;;;;;-146.25;100.00;52615.56;2097859;28;20971;-63
2024/03/08 01:42:00;;;;;;;32.60;19.05;;;;;;;-146.25;100.00;52607.47;2097478;28;33390;-63
2024/03/08 01:43:29;;;;;;;36.20;18.23;;;;;;;-146.25;100.00;52581.09;2096897;28;37638;-63
2024/03/08 01:44:31;;;;;;;29.55;17.90;;;;;;;-146.25;100.00;52587.19;2097314;28;31256;-63
2024/03/08 01:45:34;;;;;;;33.17;18.38;;;;;;;-146.25;100.00;52613.53;2097104;28;34180;-63
2024/03/08 01:46:36;;;;;;;31.90;17.90;;;;;;;-146.25;100.00;52639.91;2097572;28;33266;-60
2024/03/08 01:47:38;;;;;;;32.72;18.35;;;;;;;-146.25;100.00;52587.19;2097884;28;20049;-62
2024/03/08 01:48:40;;;;;;;33.47;16.02;;;;;;;-146.25;100.00;52587.19;2097245;28;38664;-63
2024/03/08 01:49:43;;;;;;;35.20;19.00;;;;;;;-146.25;100.00;52615.56;2097093;28;35398;-63
2024/03/08 01:50:45;;;;;;;33.00;18.40;;;;;;;-146.25;100.00;52577.03;2096769;28;34607;-62
2024/03/08 01:51:49;;;;;;;32.17;18.48;;;;;;;-146.25;100.00;52631.78;2088134;28;38679;-62
2024/03/08 01:52:53;;;;;;;31.10;17.05;;;;;;;-146.25;100.00;52599.34;2088871;28;34336;-63
2024/03/08 01:53:57;;;;;;;31.33;17.77;;;;;;;-146.25;100.00;52672.34;2087890;28;35017;-63
2024/03/08 01:55:07;;;;;;;32.05;17.83;;;;;;;-146.25;100.00;52595.28;2088333;28;32501;-63
2024/03/08 01:56:09;;;;;;;35.63;18.73;;;;;;;-146.25;100.00;52575.00;2097032;28;36050;-62
2024/03/08 01:57:17;;;;;;;35.10;17.48;;;;;;;-146.25;100.00;52589.22;2097145;28;32976;-63
2024/03/08 01:58:21;;;;;;;30.50;18.00;;;;;;;-146.25;100.00;52568.94;2097170;28;35863;-63
2024/03/08 01:59:23;;;;;;;33.90;17.95;;;;;;;-146.25;100.00;52581.09;2088793;28;20041;-63
2024/03/08 02:00:26;;;;;;;33.80;17.70;;;;;;;-146.25;100.00;52587.19;2088682;28;37227;-63
2024/03/08 02:01:28;;;;;;;30.65;18.35;;;;;;;-146.25;100.00;52546.63;2088143;28;34055;-63
2024/03/08 02:02:33;;;;;;;32.65;18.25;;;;;;;-146.25;100.00;52589.22;2079982;28;34075;-63
2024/03/08 02:03:35;;;;;;;32.55;17.55;;;;;;;-146.25;100.00;52631.78;2080646;28;37421;-63
2024/03/08 02:04:38;;;;;;;31.85;17.83;;;;;;;-146.25;100.00;52625.72;2088331;28;34015;-63
2024/03/08 02:05:41;;;;;;;31.70;17.83;;;;;;;-146.25;100.00;52583.13;2088378;28;35627;-63
2024/03/08 02:06:42;;;;;;;33.95;18.25;;;;;;;-146.25;100.00;52595.28;2080187;28;30687;-63
2024/03/08 02:07:47;;;;;;;33.60;18.10;;;;;;;-146.25;100.00;52591.25;2080368;28;36213;-63
2024/03/08 02:08:48;;;;;;;35.40;18.17;;;;;;;-146.25;100.00;52601.38;2088514;28;35342;-63
2024/03/08 02:09:51;;;;;;;30.70;18.05;;;;;;;-146.25;100.00;52558.78;2097265;28;31806;-63
2024/03/08 02:10:53;;;;;;;36.05;18.63;;;;;;;-146.25;100.00;52607.47;2097630;28;20159;-63
2024/03/08 02:11:56;;;;;;;34.30;19.13;;;;;;;-146.25;100.00;52601.38;2089105;28;20045;-63
2024/03/08 02:13:03;;;;;;;34.20;17.98;;;;;;;-146.25;100.00;52607.47;2081124;28;20332;-63
2024/03/08 02:14:06;;;;;;;29.60;18.10;;;;;;;-146.25;100.00;52585.16;2088689;28;35559;-63
2024/03/08 02:15:08;;;;;;;31.55;18.27;;;;;;;-146.25;100.00;52583.13;2096706;28;34836;-63
2024/03/08 02:16:10;;;;;;;34.40;17.63;;;;;;;-146.25;100.00;52575.00;2097157;28;36512;-62
2024/03/08 02:17:12;;;;;;;32.72;17.60;;;;;;;-146.25;100.00;52589.22;2095853;28;36363;-63
2024/03/08 02:18:14;;;;;;;30.23;17.88;;;;;;;-146.25;100.00;52591.25;2097409;28;32045;-62
2024/03/08 02:19:16;;;;;;;32.95;17.73;;;;;;;-146.25;100.00;52595.28;2096850;28;33713;-63
2024/03/08 02:20:19;;;;;;;28.40;16.92;;;;;;;-146.25;100.00;52611.50;2097116;28;37635;-63
2024/03/08 02:21:21;;;;;;;35.08;18.63;;;;;;;-146.25;100.00;52577.03;2096136;28;34076;-62
2024/03/08 02:22:23;;;;;;;35.17;18.52;;;;;;;-146.25;100.00;52577.03;2088093;28;38066;-62
2024/03/08 02:23:26;;;;;;;32.88;17.35;;;;;;;-146.25;100.00;52605.44;2088105;28;33062;-64
2024/03/08 02:24:28;;;;;;;31.98;18.60;;;;;;;-146.25;100.00;52599.34;2097318;28;30836;-63
2024/03/08 02:25:31;;;;;;;30.25;17.58;;;;;;;-146.25;100.00;52591.25;2087945;28;34839;-63
2024/03/08 02:26:32;;;;;;;30.67;18.88;;;;;;;-146.25;100.00;52597.31;2087903;28;36241;-62
2024/03/08 02:27:34;;;;;;;34.53;18.27;;;;;;;-146.25;100.00;52611.50;2097198;28;33716;-62
2024/03/08 02:28:36;;;;;;;29.60;18.02;;;;;;;-146.25;100.00;52581.09;2087748;28;36501;-62
2024/03/08 02:29:42;;;;;;;33.88;18.13;;;;;;;-146.25;100.00;52595.28;2087869;28;35459;-62
2024/03/08 02:30:48;;;;;;;37.72;17.02;;;;;;;-146.25;100.00;52607.47;2088089;28;34785;-63
2024/03/08 02:31:53;;;;;;;33.65;18.13;;;;;;;-146.25;100.00;52603.41;2089091;28;23892;-62
2024/03/08 02:32:55;;;;;;;34.00;18.33;;;;;;;-146.25;100.00;52593.25;2096936;28;32829;-63
2024/03/08 02:33:57;;;;;;;32.67;18.27;;;;;;;-146.25;100.00;52619.63;2096517;28;32179;-62
2024/03/08 02:34:59;;;;;;;30.30;16.95;;;;;;;-146.25;100.00;52623.69;2097393;28;25102;-62
2024/03/08 02:36:02;;;;;;;35.67;17.95;;;;;;;-146.25;100.00;52583.13;2095870;28;34598;-62
2024/03/08 02:37:04;;;;;;;33.60;19.27;;;;;;;-146.25;100.00;52605.44;2097577;28;20995;-63
2024/03/08 02:38:07;;;;;;;31.17;17.85;;;;;;;-146.25;100.00;52597.31;2087846;28;34127;-62
2024/03/08 02:39:10;;;;;;;31.40;17.70;;;;;;;-146.25;100.00;52627.75;2088476;28;31202;-63
2024/03/08 02:40:12;;;;;;;33.95;17.98;;;;;;;-146.25;100.00;52631.78;2096381;28;33666;-62
2024/03/08 02:41:14;;;;;;;33.95;18.20;;;;;;;-146.25;100.00;52607.47;2097241;28;34588;-64
2024/03/08 02:42:16;;;;;;;32.03;18.10;;;;;;;-146.25;100.00;52619.63;2097237;28;20084;-63
2024/03/08 02:43:19;;;;;;;30.73;17.23;;;;;;;-146.25;100.00;52591.25;2097410;28;21482;-63
2024/03/08 02:44:21;;;;;;;33.20;18.27;;;;;;;-146.25;100.00;52611.50;2096384;28;33511;-62
2024/03/08 02:45:26;;;;;;;30.95;17.83;;;;;;;-146.25;100.00;52613.53;2097756;28;20167;-63
2024/03/08 02:46:28;;;;;;;34.85;18.45;;;;;;;-146.25;100.00;52581.09;2096395;28;32512;-63
2024/03/08 02:47:32;;;;;;;29.73;17.63;;;;;;;-146.25;100.00;52627.75;2087998;28;33861;-63
2024/03/08 02:48:36;;;;;;;32.40;17.92;;;;;;;-146.25;100.00;52568.94;2088970;28;20989;-62
2024/03/08 02:49:38;;;;;;;30.90;17.92;;;;;;;-146.25;100.00;52575.00;2097090;28;37891;-62
2024/03/08 02:50:40;;;;;;;34.40;17.83;;;;;;;-146.25;100.00;52593.25;2096382;28;35842;-62
2024/03/08 02:51:44;;;;;;;31.63;18.05;;;;;;;-146.25;100.00;52617.59;2096677;28;33035;-62
2024/03/08 02:52:46;;;;;;;33.45;18.52;;;;;;;-146.25;100.00;52589.22;2096527;28;34373;-62
2024/03/08 02:53:51;;;;;;;30.85;18.23;;;;;;;-146.25;100.00;52577.03;2097036;28;35452;-63
2024/03/08 02:54:53;;;;;;;32.55;18.83;;;;;;;-146.25;100.00;52570.97;2096694;28;34353;-63
2024/03/08 02:55:55;;;;;;;33.10;17.48;;;;;;;-146.25;100.00;52581.09;2096822;28;34402;-63
2024/03/08 02:56:57;;;;;;;32.90;18.70;;;;;;;-146.25;100.00;52609.50;2096337;28;30861;-65
2024/03/08 02:58:03;;;;;;;32.20;18.25;;;;;;;-146.25;100.00;52589.22;2096915;28;34520;-63
2024/03/08 02:59:04;;;;;;;33.92;18.83;;;;;;;-146.25;100.00;52619.63;2096428;28;35770;-63
2024/03/08 03:00:09;;;;;;;30.42;17.15;;;;;;;-146.25;100.00;52595.28;2096814;28;31111;-63
2024/03/08 03:01:11;;;;;;;32.70;17.85;;;;;;;-146.25;100.00;52552.72;2079166;28;33490;-63
2024/03/08 03:02:16;;;;;;;33.53;17.73;;;;;;;-146.25;100.00;52564.88;2079571;28;34757;-63
2024/03/08 03:03:21;;;;;;;33.90;18.80;;;;;;;-146.25;100.00;52585.16;2088463;28;32480;-63
2024/03/08 03:04:23;;;;;;;34.88;18.25;;;;;;;-146.25;100.00;52585.16;2090157;28;36838;-63
2024/03/08 03:05:25;;;;;;;34.15;19.17;;;;;;;-146.25;100.00;52607.47;2096871;28;20033;-63
2024/03/08 03:06:27;;;;;;;36.42;19.00;;;;;;;-146.25;100.00;52591.25;2096645;28;34342;-63
2024/03/08 03:07:31;;;;;;;31.88;18.63;;;;;;;-146.25;100.00;52585.16;2096612;28;33197;-63
2024/03/08 03:08:33;;;;;;;32.00;17.73;;;;;;;-146.25;100.00;52607.47;2096244;28;37796;-63
2024/03/08 03:09:35;;;;;;;34.25;18.35;;;;;;;-146.25;100.00;52585.16;2097058;28;20872;-63
2024/03/08 03:10:37;;;;;;;32.92;18.90;;;;;;;-146.25;100.00;52601.38;2096707;28;34773;-63
2024/03/08 03:11:39;;;;;;;32.70;18.63;;;;;;;-146.25;100.00;52550.69;2096451;28;35302;-63
2024/03/08 03:12:45;;;;;;;35.08;18.77;;;;;;;-146.25;100.00;52605.44;2088644;28;20176;-63
2024/03/08 03:13:48;;;;;;;35.25;17.88;;;;;;;-146.25;100.00;52615.56;2084479;28;36978;-63
2024/03/08 03:14:50;;;;;;;31.13;17.55;;;;;;;-146.25;100.00;52562.84;2079908;28;37772;-63
2024/03/08 03:15:52;;;;;;;33.83;20.48;;;;;;;-146.25;100.00;52621.66;2088681;28;20041;-63
2024/03/08 03:16:56;;;;;;;31.63;18.15;;;;;;;-146.25;100.00;52579.06;2088141;28;35727;-63
2024/03/08 03:17:58;;;;;;;35.30;18.98;;;;;;;-146.25;100.00;52556.75;2088389;28;32824;-64
2024/03/08 03:19:01;;;;;;;33.72;18.63;;;;;;;-146.25;100.00;52579.06;2079151;28;34731;-63
2024/03/08 03:20:12;;;;;;;30.65;17.58;;;;;;;-146.25;100.00;52599.34;2079412;28;36711;-63
2024/03/08 03:21:15;;;;;;;33.10;18.38;;;;;;;-146.25;100.00;52623.69;2088043;28;32548;-63
2024/03/08 03:22:18;;;;;;;33.80;18.30;;;;;;;-146.25;100.00;52566.91;2078976;28;34710;-63
2024/03/08 03:23:20;;;;;;;32.40;18.05;;;;;;;-146.25;100.00;52619.63;2079828;28;36674;-63
2024/03/08 03:24:23;;;;;;;31.92;18.10;;;;;;;-146.25;100.00;52599.34;2088178;28;32579;-64
2024/03/08 03:25:28;;;;;;;30.65;18.10;;;;;;;-146.25;100.00;52595.28;2087534;28;33672;-63
2024/03/08 03:26:32;;;;;;;32.72;18.35;;;;;;;-146.25;100.00;52595.28;2087610;28;31002;-63
2024/03/08 03:27:35;;;;;;;33.67;18.73;;;;;;;-146.25;100.00;52650.03;2087983;28;34353;-64
2024/03/08 03:28:39;;;;;;;33.10;18.02;;;;;;;-146.25;100.00;52593.25;2088312;28;28357;-63
2024/03/08 03:29:45;;;;;;;33.03;17.90;;;;;;;-146.25;100.00;52627.75;2088172;28;34045;-63
2024/03/08 03:30:47;;;;;;;33.97;18.50;;;;;;;-146.25;100.00;52583.13;2088316;28;20801;-63
2024/03/08 03:31:49;;;;;;;33.08;18.05;;;;;;;-146.25;100.00;52593.25;2087540;28;33874;-63
2024/03/08 03:32:51;;;;;;;31.50;17.35;;;;;;;-146.25;100.00;52577.03;2087946;28;31314;-63
2024/03/08 03:33:53;;;;;;;33.83;18.65;;;;;;;-146.25;100.00;52617.59;2087580;28;32771;-63
2024/03/08 03:34:55;;;;;;;29.58;17.30;;;;;;;-146.25;100.00;52627.75;2084971;28;35011;-63
2024/03/08 03:35:58;;;;;;;29.33;17.75;;;;;;;-146.25;100.00;52587.19;2087266;28;33224;-63
2024/03/08 03:37:03;;;;;;;34.53;19.27;;;;;;;-146.25;100.00;52597.31;2096321;28;34930;-63
2024/03/08 03:38:07;;;;;;;33.15;17.23;;;;;;;-146.25;100.00;52579.06;2087166;28;35525;-63
2024/03/08 03:39:12;;;;;;;34.25;19.50;;;;;;;-146.25;100.00;52581.09;2080207;28;33532;-63
2024/03/08 03:40:14;;;;;;;32.67;17.52;;;;;;;-146.25;100.00;52589.22;2088474;28;34008;-64
2024/03/08 03:41:17;;;;;;;34.28;18.65;;;;;;;-146.25;100.00;52579.06;2096078;28;36510;-63
2024/03/08 03:42:19;;;;;;;35.05;19.52;;;;;;;-146.25;100.00;52595.28;2096802;28;20148;-63
2024/03/08 03:43:21;;;;;;;36.05;19.65;;;;;;;-146.25;100.00;52593.25;2096376;28;35151;-63
2024/03/08 03:44:23;;;;;;;31.27;17.38;;;;;;;-146.25;100.00;52591.25;2096463;28;36827;-63
2024/03/08 03:45:26;;;;;;;33.72;19.65;;;;;;;-146.25;100.00;52603.41;2096615;28;32430;-62
2024/03/08 03:46:27;;;;;;;34.33;18.35;;;;;;;-146.25;100.00;52591.25;2096213;28;36474;-64
2024/03/08 03:47:29;;;;;;;35.75;18.77;;;;;;;-146.25;100.00;52607.47;2097035;28;20041;-64
2024/03/08 03:48:32;;;;;;;32.17;18.85;;;;;;;-146.25;100.00;52587.19;2095685;28;29277;-63
2024/03/08 03:49:33;;;;;;;31.23;18.00;;;;;;;-146.25;100.00;52585.16;2096082;28;35524;-63
2024/03/08 03:50:35;;;;;;;32.13;18.83;;;;;;;-146.25;100.00;52593.25;2096247;28;31444;-63
2024/03/08 03:51:38;;;;;;;36.03;18.73;;;;;;;-146.25;100.00;52595.28;2096298;28;26355;-63
2024/03/08 03:52:39;;;;;;;30.35;18.20;;;;;;;-146.25;100.00;52583.13;2096362;28;35142;-63
2024/03/08 03:53:41;;;;;;;33.45;18.73;;;;;;;-146.25;100.00;52577.03;2096375;28;34294;-64
2024/03/08 03:54:43;;;;;;;35.08;19.20;;;;;;;-146.25;100.00;52575.00;2096464;28;37339;-64
2024/03/08 03:55:47;;;;;;;32.17;18.30;;;;;;;-146.25;100.00;52607.47;2096219;28;31433;-63
2024/03/08 03:56:52;;;;;;;33.10;17.48;;;;;;;-146.25;100.00;52595.28;2096511;28;37799;-64
2024/03/08 03:57:54;;;;;;;32.78;19.45;;;;;;;-146.25;100.00;52619.63;2088103;28;20041;-63
2024/03/08 03:58:56;;;;;;;33.22;18.85;;;;;;;-146.25;100.00;52597.31;2087888;28;33283;-63
2024/03/08 03:59:58;;;;;;;36.03;19.83;;;;;;;-146.25;100.00;52617.59;2096860;28;20084;-64
2024/03/08 04:01:00;;;;;;;32.58;18.23;;;;;;;-146.25;100.00;52603.41;2086978;28;36243;-63
2024/03/08 04:02:05;;;;;;;36.85;19.90;;;;;;;-146.25;100.00;52593.25;2087447;28;29302;-63
2024/03/08 04:03:08;;;;;;;38.20;19.23;;;;;;;-146.25;100.00;52623.69;2095619;28;33757;-63
2024/03/08 04:04:12;;;;;;;35.55;18.70;;;;;;;-146.25;100.00;52568.94;2096306;28;35108;-63
2024/03/08 04:05:16;;;;;;;35.17;19.67;;;;;;;-146.25;100.00;52607.47;2096158;28;36778;-63
2024/03/08 04:06:18;;;;;;;33.83;19.42;;;;;;;-146.25;100.00;52607.47;2095789;28;36254;-64
2024/03/08 04:07:20;;;;;;;32.17;19.30;;;;;;;-146.25;100.00;52603.41;2086963;28;34181;-64
2024/03/08 04:08:23;;;;;;;35.95;19.88;;;;;;;-146.25;100.00;52619.63;2079207;28;35280;-64
2024/03/08 04:09:25;;;;;;;37.17;20.35;;;;;;;-146.25;100.00;52577.03;2087270;28;37516;-64
2024/03/08 04:10:27;;;;;;;34.45;19.15;;;;;;;-146.25;100.00;52611.50;2095708;28;34515;-64
2024/03/08 04:11:28;;;;;;;38.35;21.23;;;;;;;-146.25;100.00;52615.56;2096285;28;36423;-64
2024/03/08 04:12:30;;;;;;;35.45;20.23;;;;;;;-146.25;100.00;52621.66;2096383;28;35280;-64
2024/03/08 04:13:32;;;;;;;37.33;19.77;;;;;;;-146.25;100.00;52611.50;2087082;28;35176;-63
2024/03/08 04:14:34;;;;;;;36.30;19.60;;;;;;;-146.25;100.00;52597.31;2087498;28;36216;-64
2024/03/08 04:15:37;;;;;;;34.45;19.67;;;;;;;-146.25;100.00;52591.25;2086910;28;33158;-64
2024/03/08 04:16:41;;;;;;;36.30;19.00;;;;;;;-146.25;100.00;52583.13;2087633;28;32930;-64
2024/03/08 04:17:45;;;;;;;38.15;20.63;;;;;;;-146.25;100.00;52579.06;2095370;28;33765;-64
2024/03/08 04:18:48;;;;;;;37.33;20.90;;;;;;;-146.25;100.00;52615.56;2096391;28;20037;-64
2024/03/08 04:19:53;;;;;;;33.83;20.17;;;;;;;-146.25;100.00;52595.28;2096433;28;32100;-64
2024/03/08 04:20:57;;;;;;;37.17;20.17;;;;;;;-146.25;100.00;52591.25;2096226;28;35314;-64
2024/03/08 04:22:00;;;;;;;38.20;20.63;;;;;;;-146.25;100.00;52593.25;2095799;28;34750;-64
2024/03/08 04:23:02;;;;;;;37.85;19.67;;;;;;;-146.25;100.00;52609.50;2096076;28;32703;-64
2024/03/08 04:24:05;;;;;;;35.03;19.92;;;;;;;-146.25;100.00;52605.44;2096626;28;20048;-64
2024/03/08 04:25:09;;;;;;;38.05;20.67;;;;;;;-146.25;100.00;52603.41;2096776;28;20119;-64
2024/03/08 04:26:11;;;;;;;33.67;19.90;;;;;;;-146.25;100.00;52591.25;2096373;28;36657;-64
2024/03/08 04:27:16;;;;;;;35.83;19.98;;;;;;;-146.25;100.00;52579.06;2096196;28;34698;-64
2024/03/08 04:28:18;;;;;;;38.90;20.50;;;;;;;-146.25;100.00;52589.22;2096700;28;20171;-63
2024/03/08 04:29:20;;;;;;;36.20;20.13;;;;;;;-146.25;100.00;52603.41;2096495;28;26925;-62
2024/03/08 04:30:24;;;;;;;33.53;19.00;;;;;;;-146.25;100.00;52619.63;2096339;28;20914;-63
2024/03/08 04:31:26;;;;;;;37.78;20.63;;;;;;;-146.25;100.00;52613.53;2096510;28;31668;-64
2024/03/08 04:32:32;;;;;;;35.50;20.15;;;;;;;-146.25;100.00;52607.47;2095775;28;34732;-64
2024/03/08 04:33:37;;;;;;;39.25;20.95;;;;;;;-146.25;100.00;52591.25;2096419;28;32017;-63
2024/03/08 04:34:39;;;;;;;35.35;20.17;;;;;;;-146.25;100.00;52595.28;2095837;28;33927;-63
2024/03/08 04:35:45;;;;;;;35.72;19.67;;;;;;;-146.25;100.00;52570.97;2095886;28;27740;-63
2024/03/08 04:36:48;;;;;;;36.53;20.40;;;;;;;-146.25;100.00;52566.91;2095092;28;34129;-63
2024/03/08 04:37:50;;;;;;;34.72;20.02;;;;;;;-146.25;100.00;52607.47;2087392;28;33757;-63
2024/03/08 04:38:52;;;;;;;35.30;19.80;;;;;;;-146.25;100.00;52593.25;2086896;28;34299;-63
2024/03/08 04:39:54;;;;;;;38.47;20.13;;;;;;;-146.25;100.00;52575.00;2096311;28;32765;-62